Flight Track Log - Related Links

Times and Time Zones

All times are in EDT time to prevent confusion due to time zone crossing. See the AAL1755 flight status page for this flight to view local times or setup timezone preferences in your user account.

Time Position Orientation Groundspeed Altitude Reporting Facility
EDT Latitude Longitude Course Direction KTS MPH feet Rate Location/Type
Tue 10:16:26 AM 32.8543 -97.0333 344° North  Level FlightAware Approximate
Tue 10:17:02 AM 32.9292 -97.0589 348° North 192 221 2,500  Level FAA TRACON SMA TRACON (SMA)
Tue 10:17:41 AM 32.9667 -97.0681 342° North 199 229 4,000 2,000 Climbing FAA TRACON SMA TRACON (SMA)
Tue 10:18:23 AM 33.0022 -97.0819 286° West 224 258 5,200 2,122 Climbing FAA TRACON SMA TRACON (SMA)
Tue 10:19:03 AM 33.0144 -97.1344 262° West 263 303 6,900 2,775 Climbing FAA TRACON SMA TRACON (SMA)
Tue 10:19:43 AM 33.0072 -97.1931 259° West 258 297 8,900 2,175 Climbing FAA TRACON SMA TRACON (SMA)
Tue 10:20:23 AM 32.9989 -97.2453 219° Southwest 264 304 9,800 900 Climbing FAA TRACON SMA TRACON (SMA)
Tue 10:21:03 AM 32.9561 -97.2869 186° South 299 344 10,100 1,704 Climbing FAA TRACON SMA TRACON (SMA)
Tue 10:21:44 AM 32.8917 -97.2950 178° South 341 392 12,100 3,525 Climbing FAA TRACON SMA TRACON (SMA)
Tue 10:22:23 AM 32.8283 -97.2919 176° South 326 375 14,800 3,615 Climbing FAA TRACON SMA TRACON (SMA)
Tue 10:23:02 AM 32.7753 -97.2878 171° South 311 358 16,800 2,700 Climbing FAA TRACON SMA TRACON (SMA)
Tue 10:23:43 AM 32.7147 -97.2758 170° South 318 366 18,400 2,074 Climbing FAA TRACON SMA TRACON (SMA)
Tue 10:24:23 AM 32.6539 -97.2628 170° South 323 372 19,600 1,650 Climbing FAA TRACON SMA TRACON (SMA)
Tue 10:25:03 AM 32.5981 -97.2514 170° South 330 380 20,600 1,500 Climbing FAA TRACON SMA TRACON (SMA)
Tue 10:25:43 AM 32.5350 -97.2381 170° South 333 383 21,600 2,000 Climbing FAA TRACON SMA TRACON (SMA)
Tue 10:26:21 AM 32.4725 -97.2253 170° South 327 376 23,200 1,923 Climbing FAA TRACON SMA TRACON (SMA)
Tue 10:27:01 AM 32.4167 -97.2136 171° South 328 377 24,100 1,317 Climbing FAA TRACON SMA TRACON (SMA)
Tue 10:27:43 AM 32.3547 -97.2014 170° South 325 374 25,000 1,200 Climbing FAA TRACON SMA TRACON (SMA)
Tue 10:28:21 AM 32.2917 -97.1878 183° South 331 381 25,700 1,063 Climbing FAA TRACON SMA TRACON (SMA)
Tue 10:29:02 AM 32.2347 -97.1914 186° South 334 384 26,400 963 Climbing FAA TRACON SMA TRACON (SMA)
Tue 10:29:42 AM 32.1697 -97.2000 187° South 340 391 27,000 585 Climbing FAA TRACON SMA TRACON (SMA)
Tue 10:30:24 AM 32.1019 -97.2092 186° South 356 410 27,200 225 Climbing FAA TRACON SMA TRACON (SMA)
Tue 10:31:02 AM 32.0389 -97.2169 187° South 372 428 27,300 380 Climbing FAA TRACON SMA TRACON (SMA)
Tue 10:31:43 AM 31.9667 -97.2275 187° South 378 435 27,700 939 Climbing FAA TRACON SMA TRACON (SMA)
Tue 10:33:29 AM 31.7914 -97.2544 186° South 374 430 29,600 940 Climbing Fort Worth Center
Tue 10:34:29 AM 31.6914 -97.2669 198° South 374 430 30,300 595 Climbing Fort Worth Center
Tue 10:35:40 AM 31.5694 -97.3142 203° Southwest 378 435 30,900 692 Climbing Houston Center
Tue 10:36:39 AM 31.4714 -97.3619 183° South 383 441 31,800 555 Climbing Houston Center
Tue 10:37:39 AM 31.3711 -97.3683 182° South 363 418 32,000 100 Climbing Houston Center
Tue 10:38:39 AM 31.2625 -97.3719 181° South 363 418 32,000  Level Houston Center
Tue 10:39:39 AM 31.1581 -97.3731 182° South 369 425 32,000 50 Level Houston Center
Tue 10:40:40 AM 31.0539 -97.3769 182° South 374 430 32,100 50 Climbing Houston Center
Tue 10:41:39 AM 30.9556 -97.3808 181° South 380 437 32,100 -50 Level Houston Center
Tue 10:42:40 AM 30.8472 -97.3819 181° South 392 451 32,000 -50 Descending Houston Center
Tue 10:43:39 AM 30.7428 -97.3833 181° South 386 444 32,000  Level Houston Center
Tue 10:44:39 AM 30.6364 -97.3844 182° South 386 444 32,000  Level Houston Center
Tue 10:45:39 AM 30.5278 -97.3881 180° South 391 450 32,000 50 Level Houston Center
Tue 10:46:39 AM 30.4089 -97.3886 181° South 391 450 32,100 50 Climbing Houston Center
Tue 10:47:40 AM 30.2981 -97.3919 183° South 391 450 32,100  Level Houston Center
Tue 10:48:39 AM 30.1914 -97.3978 180° South 391 450 32,100 -50 Level Houston Center
Tue 10:49:39 AM 30.0808 -97.3967 182° South 396 456 32,000 -100 Descending Houston Center
Tue 10:50:39 AM 29.9764 -97.4003 181° South 391 450 31,900  Descending Houston Center
Tue 10:51:39 AM 29.8636 -97.4036 181° South 391 450 32,000 50 Climbing Houston Center
Tue 10:52:39 AM 29.7550 -97.4047 191° South 391 450 32,000  Level Houston Center
Tue 10:53:39 AM 29.6456 -97.4297 194° South 396 456 32,000 50 Level Houston Center
Tue 10:54:39 AM 29.5400 -97.4597 192° South 396 456 32,100  Climbing Houston Center
Tue 10:55:39 AM 29.4431 -97.4828 192° South 396 456 32,000 -50 Descending Houston Center
Tue 10:56:40 AM 29.3375 -97.5078 191° South 396 456 32,000 -50 Level Houston Center
Tue 10:57:40 AM 29.2300 -97.5328 192° South 396 456 31,900 -50 Descending Houston Center
Tue 10:58:40 AM 29.1247 -97.5578 191° South 396 456 31,900 50 Level Houston Center
Tue 10:59:39 AM 29.0172 -97.5828 192° South 396 456 32,000 50 Climbing Houston Center
Tue 11:00:39 AM 28.9117 -97.6075 192° South 396 456 32,000  Level Houston Center
Tue 11:01:39 AM 28.8000 -97.6344 192° South 396 456 32,000 -50 Level Houston Center
Tue 11:02:39 AM 28.6967 -97.6594 192° South 396 456 31,900 -50 Descending Houston Center
Tue 11:03:39 AM 28.5889 -97.6864 192° South 396 456 31,900 49 Level Houston Center
Tue 11:04:42 AM 28.4836 -97.7111 192° South 396 456 32,000 45 Climbing Houston Center
Tue 11:05:51 AM 28.3528 -97.7417 192° South 396 456 32,000  Level Houston Center
Tue 11:06:52 AM 28.2453 -97.7683 189° South 396 456 32,000 -550 Level Houston Center
Tue 11:07:51 AM 28.1169 -97.7917 192° South 412 474 30,900 -1,059 Descending Houston Center
Tue 11:08:51 AM 28.0072 -97.8186 190° South 412 474 29,900 -900 Descending Houston Center
Tue 11:09:51 AM 27.9103 -97.8389 192° South 412 474 29,100 -900 Descending Houston Center
Tue 11:10:51 AM 27.7964 -97.8653 193° South 412 474 28,100 -1,000 Descending Houston Center
Tue 11:11:51 AM 27.6844 -97.8939 192° South 412 474 27,100 -900 Descending Houston Center
Tue 11:12:51 AM 27.5683 -97.9225 191° South 417 480 26,300 -1,000 Descending Houston Center
Tue 11:13:51 AM 27.4567 -97.9464 192° South 412 474 25,100 -2,132 Descending Houston Center
Tue 11:14:52 AM 27.3489 -97.9731 192° South 412 474 22,000 -2,975 Descending Houston Center
Tue 11:15:52 AM 27.2414 -97.9994 192° South 401 461 19,100 -2,750 Descending Houston Center
Tue 11:16:52 AM 27.1419 -98.0242 191° South 388 447 16,500 -2,050 Descending Houston Center
Tue 11:17:52 AM 27.0472 -98.0444 192° South 372 428 15,000 -1,950 Descending Houston Center
Tue 11:18:52 AM 26.9586 -98.0650 192° South 345 397 12,600 -2,067 Descending Houston Center
Tue 11:19:51 AM 26.8722 -98.0856 171° South 330 380 10,900 -1,412 Descending Houston Center
Tue 11:20:51 AM 26.7933 -98.0717 171° South 291 335 9,800 -1,339 Descending Houston Center
Tue 11:21:52 AM 26.7106 -98.0578 170° South 284 327 8,200 -1,438 Descending Houston Center
Tue 11:22:52 AM 26.6425 -98.0444 174° South 279 321 6,900 -1,727 Descending Houston Center
Tue 11:24:11 AM 26.5367 -98.0314 172° South 279 321 4,200 -1,450 Descending Houston Center
Tue 11:24:52 AM 26.4908 -98.0242 177° South 278 320 4,000 -59 Descending Houston Center
Tue 11:25:52 AM 26.4181 -98.0203 181° South 258 297 4,100 50 Climbing Houston Center
Tue 11:26:51 AM 26.3597 -98.0214 183° South 242 278 4,100 -47 Level Houston Center
Tue 11:28:01 AM 26.2739 -98.0258 182° South 238 274 4,000 -350 Descending Houston Center
Tue 11:28:51 AM 26.2258 -98.0278 184° South 242 278 3,400 -491 Descending Houston Center
Tue 11:29:51 AM 26.1547 -98.0331 184° South 236 272 3,100 -550 Descending Houston Center
Tue 11:30:51 AM 26.1003 -98.0369 201° Southwest 231 266 2,300 -496 Descending Houston Center
Tue 11:31:52 AM 26.0383 -98.0636 256° West 226 260 2,100 -100 Descending Houston Center
Tue 11:32:51 AM 26.0281 -98.1092 321° Northwest 184 212 2,100  Level Houston Center
Tue 11:33:52 AM 26.0661 -98.1436 321° Northwest 123 142 2,100  Level Houston Center

Login

Don't have an account? Register now (free) for customized features, flight alerts, and more!